createdAt,value
2023-02-28T00:01:07.138Z,79.72
2023-02-28T00:03:36.500Z,80.02
2023-02-28T00:06:05.680Z,79.99
2023-02-28T00:08:32.735Z,79.55
2023-02-28T00:11:08.561Z,79.56
2023-02-28T00:13:38.565Z,79.70
2023-02-28T00:16:11.438Z,79.86
2023-02-28T00:18:39.045Z,80.25
2023-02-28T00:21:06.514Z,80.68
2023-02-28T00:23:33.918Z,81.12
2023-02-28T00:26:00.772Z,81.07
2023-02-28T00:28:27.883Z,81.46
2023-02-28T00:30:54.770Z,81.44
2023-02-28T00:33:22.202Z,81.58
2023-02-28T00:35:49.959Z,82.19
2023-02-28T00:38:19.293Z,82.83
2023-02-28T00:40:46.104Z,82.46
2023-02-28T00:43:15.292Z,82.44
2023-02-28T00:45:42.948Z,82.44
2023-02-28T00:48:10.006Z,82.74
2023-02-28T00:50:37.293Z,82.88
2023-02-28T00:53:03.952Z,82.79
2023-02-28T00:55:31.122Z,82.74
2023-02-28T00:57:57.825Z,82.64
2023-02-28T01:00:24.568Z,82.65
2023-02-28T01:02:51.250Z,82.45
2023-02-28T01:05:18.038Z,83.09
2023-02-28T01:07:48.427Z,82.37
2023-02-28T01:10:15.162Z,83.16
2023-02-28T01:12:43.136Z,83.32
2023-02-28T01:15:12.484Z,83.28
2023-02-28T01:17:39.240Z,83.39
2023-02-28T01:20:06.782Z,82.87
2023-02-28T01:22:33.465Z,83.18
2023-02-28T01:25:00.441Z,82.90
2023-02-28T01:27:27.744Z,82.91
2023-02-28T01:29:54.396Z,83.13
2023-02-28T01:32:21.304Z,83.40
2023-02-28T01:34:47.997Z,82.02
2023-02-28T01:37:14.644Z,82.05
2023-02-28T01:42:06.930Z,81.60
2023-02-28T01:44:42.657Z,81.99
2023-02-28T01:47:09.459Z,82.66
2023-02-28T01:49:36.134Z,82.46
2023-02-28T01:52:03.425Z,82.10
2023-02-28T01:54:34.828Z,81.73
2023-02-28T01:57:12.871Z,81.25
2023-02-28T01:59:49.970Z,81.99
2023-02-28T02:02:18.854Z,82.22
2023-02-28T02:04:56.456Z,82.22
2023-02-28T02:07:24.578Z,81.94
2023-02-28T02:09:51.364Z,82.43
2023-02-28T02:12:31.757Z,81.96
2023-02-28T02:15:14.129Z,81.85
2023-02-28T02:17:41.667Z,82.73
2023-02-28T02:20:39.335Z,82.12
2023-02-28T02:23:42.639Z,82.22
2023-02-28T02:26:12.245Z,82.50
2023-02-28T02:28:43.696Z,82.90
2023-02-28T02:31:42.757Z,81.97
2023-02-28T02:34:27.469Z,82.57
2023-02-28T02:37:32.426Z,83.30
2023-02-28T02:40:01.851Z,82.77
2023-02-28T02:42:42.612Z,82.99
2023-02-28T02:45:16.908Z,83.05
2023-02-28T02:47:45.376Z,83.70
2023-02-28T02:50:38.774Z,82.63
2023-02-28T02:53:08.462Z,83.83
2023-02-28T02:55:42.606Z,83.25
2023-02-28T02:58:15.166Z,84.13
2023-02-28T03:00:42.705Z,83.57
2023-02-28T03:03:12.176Z,83.46
2023-02-28T03:05:42.636Z,83.58
2023-02-28T03:08:09.346Z,83.65
2023-02-28T03:10:41.721Z,83.38
2023-02-28T03:13:26.552Z,83.12
2023-02-28T03:16:07.199Z,83.44
2023-02-28T03:18:42.692Z,83.62
2023-02-28T03:21:24.970Z,83.48
2023-02-28T03:23:55.704Z,84.48
2023-02-28T03:26:28.330Z,84.63
2023-02-28T03:29:06.650Z,84.32
2023-02-28T03:31:39.165Z,83.99
2023-02-28T03:34:19.738Z,84.26
2023-02-28T03:36:52.867Z,83.82
2023-02-28T03:39:28.109Z,84.25
2023-02-28T03:42:03.266Z,84.51
2023-02-28T03:44:36.734Z,84.68
2023-02-28T03:47:15.950Z,84.59
2023-02-28T03:50:00.855Z,84.39
2023-02-28T03:52:33.686Z,84.64
2023-02-28T03:55:07.630Z,84.76
2023-02-28T03:57:41.822Z,85.54
2023-02-28T04:00:15.535Z,85.11
2023-02-28T04:02:42.484Z,85.41
2023-02-28T04:05:09.530Z,86.03
2023-02-28T04:07:36.773Z,85.95
2023-02-28T04:10:05.091Z,85.72
2023-02-28T04:12:31.827Z,86.02
2023-02-28T04:14:58.626Z,85.15
2023-02-28T04:17:25.566Z,85.25
2023-02-28T04:19:52.565Z,85.11
2023-02-28T04:22:19.477Z,85.56
2023-02-28T04:24:46.667Z,86.00
2023-02-28T04:27:16.593Z,85.13
2023-02-28T04:29:45.681Z,85.33
2023-02-28T04:32:14.094Z,86.11
2023-02-28T04:37:13.625Z,85.42
2023-02-28T04:39:42.927Z,84.74
2023-02-28T04:42:10.951Z,84.54
2023-02-28T04:44:37.744Z,83.99
2023-02-28T04:47:04.556Z,84.04
2023-02-28T04:49:31.191Z,85.50
2023-02-28T04:51:57.944Z,84.05
2023-02-28T04:54:24.640Z,84.22
2023-02-28T04:56:51.460Z,83.91
2023-02-28T04:59:18.596Z,83.71
2023-02-28T05:01:49.906Z,84.14
2023-02-28T05:04:17.203Z,82.72
2023-02-28T05:06:44.124Z,83.65
2023-02-28T05:09:14.426Z,84.13
2023-02-28T05:11:43.035Z,83.70
2023-02-28T05:14:15.197Z,83.92
2023-02-28T05:16:43.195Z,83.75
2023-02-28T05:19:10.147Z,83.62
2023-02-28T05:21:40.163Z,83.21
2023-02-28T05:24:13.556Z,83.79
2023-02-28T05:26:42.694Z,82.78
2023-02-28T05:29:10.295Z,82.23
2023-02-28T05:31:37.588Z,81.93
2023-02-28T05:34:07.303Z,82.17
2023-02-28T05:36:34.910Z,82.49
2023-02-28T05:39:01.742Z,82.47
2023-02-28T05:41:29.033Z,82.82
2023-02-28T05:43:56.040Z,82.58
2023-02-28T05:46:23.454Z,81.95
2023-02-28T05:48:50.544Z,81.60
2023-02-28T05:51:17.927Z,81.67
2023-02-28T05:53:44.688Z,81.60
2023-02-28T05:56:12.457Z,82.62
2023-02-28T05:58:39.260Z,81.42
2023-02-28T06:01:29.893Z,81.04
2023-02-28T06:03:56.936Z,80.62
2023-02-28T06:06:23.625Z,80.75
2023-02-28T06:08:50.441Z,80.95
2023-02-28T06:11:17.214Z,82.04
2023-02-28T06:13:43.954Z,81.35
2023-02-28T06:16:12.417Z,80.24
2023-02-28T06:18:39.576Z,81.88
2023-02-28T06:21:06.931Z,82.06
2023-02-28T06:23:34.225Z,81.10
2023-02-28T06:26:01.245Z,79.90
2023-02-28T06:28:28.517Z,79.98
2023-02-28T06:30:55.357Z,80.21
2023-02-28T06:33:22.125Z,80.03
2023-02-28T06:35:52.158Z,79.57
2023-02-28T06:38:19.389Z,80.14
2023-02-28T06:40:46.217Z,79.03
2023-02-28T06:43:16.037Z,78.48
2023-02-28T06:45:44.603Z,77.57
2023-02-28T06:48:11.747Z,78.44
2023-02-28T06:53:07.428Z,77.48
2023-02-28T06:55:34.298Z,77.24
2023-02-28T06:58:01.183Z,76.82
2023-02-28T07:00:27.949Z,77.18
2023-02-28T07:02:56.232Z,76.48
2023-02-28T07:05:23.163Z,76.76
2023-02-28T07:07:49.897Z,76.46
2023-02-28T07:10:20.188Z,76.11
2023-02-28T07:12:47.201Z,75.46
2023-02-28T07:15:13.978Z,75.12
2023-02-28T07:20:07.662Z,74.40
2023-02-28T07:22:34.320Z,74.51
2023-02-28T07:25:01.058Z,73.60
2023-02-28T07:27:27.798Z,74.21
2023-02-28T07:29:55.806Z,73.87
2023-02-28T07:32:22.723Z,73.13
2023-02-28T07:34:49.726Z,73.51
2023-02-28T07:37:16.612Z,73.34
2023-02-28T07:39:43.626Z,73.17
2023-02-28T07:42:13.475Z,72.63
2023-02-28T07:47:11.154Z,72.50
2023-02-28T07:49:38.154Z,72.49
2023-02-28T07:52:06.890Z,72.27
2023-02-28T07:54:34.534Z,72.30
2023-02-28T07:57:01.193Z,71.26
2023-02-28T07:59:28.097Z,71.10
2023-02-28T08:01:59.251Z,71.23
2023-02-28T08:04:26.618Z,70.60
2023-02-28T08:06:54.186Z,70.31
2023-02-28T08:09:20.989Z,69.48
2023-02-28T08:11:47.663Z,69.11
2023-02-28T08:14:14.896Z,68.67
2023-02-28T08:19:07.313Z,67.94
2023-02-28T08:21:34.192Z,67.63
2023-02-28T08:24:00.892Z,67.65
2023-02-28T08:26:27.759Z,66.33
2023-02-28T08:28:56.176Z,66.24
2023-02-28T08:31:24.280Z,65.54
2023-02-28T08:33:52.994Z,65.53
2023-02-28T08:36:21.515Z,65.08
2023-02-28T08:38:48.301Z,64.77
2023-02-28T08:41:15.037Z,64.23
2023-02-28T08:43:42.946Z,64.39
2023-02-28T08:46:13.616Z,63.57
2023-02-28T08:51:13.212Z,62.70
2023-02-28T08:56:11.848Z,61.65
2023-02-28T08:58:39.251Z,61.88
2023-02-28T09:01:14.321Z,60.46
2023-02-28T09:03:42.934Z,60.40
2023-02-28T09:06:11.299Z,60.10
2023-02-28T09:08:38.444Z,59.66
2023-02-28T09:11:05.983Z,59.46
2023-02-28T09:13:36.204Z,57.90
2023-02-28T09:16:05.110Z,57.56
2023-02-28T09:18:31.921Z,57.52
2023-02-28T09:20:58.973Z,56.93
2023-02-28T09:23:26.042Z,56.97
2023-02-28T09:25:55.130Z,55.95
2023-02-28T09:28:22.648Z,55.42
2023-02-28T09:30:52.018Z,54.96
2023-02-28T09:33:21.856Z,54.73
2023-02-28T09:35:49.622Z,53.89
2023-02-28T09:38:16.452Z,54.49
2023-02-28T09:40:54.794Z,54.06
2023-02-28T09:43:25.121Z,53.96
2023-02-28T09:46:16.944Z,54.33
2023-02-28T09:48:48.106Z,54.23
2023-02-28T09:51:36.813Z,52.51
2023-02-28T09:54:03.981Z,53.34
2023-02-28T09:56:42.882Z,53.33
2023-02-28T10:02:22.483Z,51.13
2023-02-28T10:04:56.468Z,51.58
2023-02-28T10:07:35.291Z,50.45
2023-02-28T10:10:10.036Z,49.24
2023-02-28T10:15:15.602Z,48.47
2023-02-28T10:17:55.249Z,49.44
2023-02-28T10:20:31.017Z,49.16
2023-02-28T10:23:18.041Z,48.83
2023-02-28T10:25:51.316Z,49.00
2023-02-28T10:28:19.217Z,48.71
2023-02-28T10:30:51.120Z,49.21
2023-02-28T10:33:25.275Z,49.83
2023-02-28T10:35:53.165Z,49.96
2023-02-28T10:38:25.898Z,49.18
2023-02-28T10:41:04.015Z,48.22
2023-02-28T10:43:31.026Z,47.84
2023-02-28T10:46:27.008Z,48.11
2023-02-28T10:49:06.695Z,47.81
2023-02-28T10:51:38.799Z,46.21
2023-02-28T10:54:06.321Z,45.42
2023-02-28T10:56:34.220Z,46.75
2023-02-28T10:59:31.970Z,46.60
2023-02-28T11:01:58.824Z,48.44
2023-02-28T11:04:33.561Z,49.98
2023-02-28T11:07:07.451Z,50.76
2023-02-28T11:09:39.893Z,49.79
2023-02-28T11:12:47.032Z,49.32
2023-02-28T11:15:15.806Z,48.62
2023-02-28T11:17:43.814Z,48.58
2023-02-28T11:20:22.004Z,49.15
2023-02-28T11:22:48.967Z,48.89
2023-02-28T11:25:43.007Z,49.66
2023-02-28T11:28:27.609Z,49.96
2023-02-28T11:31:20.686Z,49.79
2023-02-28T11:33:56.843Z,48.94
2023-02-28T11:36:30.399Z,48.66
2023-02-28T11:39:04.709Z,47.71
2023-02-28T11:41:41.475Z,47.54
2023-02-28T11:44:18.160Z,47.42
2023-02-28T11:46:51.523Z,47.58
2023-02-28T11:49:28.018Z,47.96
2023-02-28T11:52:04.242Z,48.01
2023-02-28T11:54:41.973Z,47.91
2023-02-28T11:57:33.917Z,44.41
2023-02-28T12:00:05.966Z,46.00
2023-02-28T12:02:38.356Z,46.83
2023-02-28T12:05:17.204Z,45.55
2023-02-28T12:08:07.271Z,40.03
2023-02-28T12:10:42.952Z,44.93
2023-02-28T12:13:29.706Z,44.57
2023-02-28T12:16:16.395Z,45.65
2023-02-28T12:18:55.064Z,39.18
2023-02-28T12:21:43.207Z,38.89
2023-02-28T12:24:24.970Z,38.95
2023-02-28T12:26:53.166Z,40.98
2023-02-28T12:29:43.714Z,43.55
2023-02-28T12:32:23.287Z,40.47
2023-02-28T12:35:00.013Z,43.31
2023-02-28T12:37:36.828Z,45.13
2023-02-28T12:40:12.169Z,42.80
2023-02-28T12:42:41.982Z,42.73
2023-02-28T12:45:14.660Z,38.83
2023-02-28T12:47:42.094Z,36.78
2023-02-28T12:50:12.852Z,37.42
2023-02-28T12:52:42.012Z,37.22
2023-02-28T12:55:35.856Z,42.36
2023-02-28T12:58:29.000Z,39.89
2023-02-28T13:01:29.257Z,37.99
2023-02-28T13:04:19.323Z,41.73
2023-02-28T13:07:18.148Z,39.64
2023-02-28T13:09:58.506Z,37.78
2023-02-28T13:12:25.704Z,37.50
2023-02-28T13:15:23.246Z,39.50
2023-02-28T13:17:56.148Z,41.00
2023-02-28T13:20:37.447Z,36.33
2023-02-28T13:23:06.529Z,35.62
2023-02-28T13:25:39.197Z,37.10
2023-02-28T13:28:12.001Z,38.48
2023-02-28T13:30:41.985Z,35.68
2023-02-28T13:33:30.559Z,36.29
2023-02-28T13:36:33.548Z,34.35
2023-02-28T13:39:25.087Z,36.30
2023-02-28T13:41:51.824Z,35.20
2023-02-28T13:44:27.981Z,36.28
2023-02-28T13:46:54.613Z,36.21
2023-02-28T13:49:24.364Z,35.13
2023-02-28T13:51:53.394Z,34.07
2023-02-28T13:57:21.892Z,34.56
2023-02-28T14:00:26.429Z,35.84
2023-02-28T14:03:43.090Z,32.91
2023-02-28T14:06:28.280Z,34.92
2023-02-28T14:09:20.901Z,34.78
2023-02-28T14:11:47.898Z,35.76
2023-02-28T14:14:37.661Z,34.52
2023-02-28T14:17:10.699Z,35.18
2023-02-28T14:19:40.374Z,36.85
2023-02-28T14:25:35.808Z,34.83
2023-02-28T14:28:08.691Z,33.99
2023-02-28T14:30:43.095Z,35.19
2023-02-28T14:33:19.992Z,34.78
2023-02-28T14:36:04.759Z,35.82
2023-02-28T14:41:21.820Z,36.79
2023-02-28T14:43:57.869Z,36.32
2023-02-28T14:46:30.186Z,35.84
2023-02-28T14:48:57.078Z,35.40
2023-02-28T14:51:25.419Z,36.61
2023-02-28T14:53:58.365Z,35.78
2023-02-28T14:56:29.437Z,36.26
2023-02-28T14:58:59.440Z,36.78
2023-02-28T15:01:30.401Z,37.28
2023-02-28T15:04:04.286Z,41.14
2023-02-28T15:06:31.711Z,39.31
2023-02-28T15:09:09.786Z,37.58
2023-02-28T15:11:37.371Z,36.95
2023-02-28T15:14:16.351Z,36.39
2023-02-28T15:16:45.797Z,35.81
2023-02-28T15:19:25.471Z,36.26
2023-02-28T15:22:01.553Z,36.44
2023-02-28T15:24:43.479Z,36.33
2023-02-28T15:27:33.588Z,37.11
2023-02-28T15:30:06.414Z,39.10
2023-02-28T15:32:36.117Z,37.43
2023-02-28T15:35:27.146Z,38.06
2023-02-28T15:37:58.086Z,38.23
2023-02-28T15:40:29.297Z,38.88
2023-02-28T15:43:15.258Z,41.13
2023-02-28T15:45:42.265Z,41.60
2023-02-28T15:48:29.714Z,41.77
2023-02-28T15:51:21.268Z,42.45
2023-02-28T15:54:03.791Z,42.11
2023-02-28T15:56:39.583Z,42.55
2023-02-28T15:59:15.034Z,43.39
2023-02-28T16:04:16.861Z,44.32
2023-02-28T16:06:58.777Z,45.33
2023-02-28T16:09:25.823Z,46.05
2023-02-28T16:11:56.291Z,46.34
2023-02-28T16:14:26.176Z,47.25
2023-02-28T16:16:58.342Z,47.63
2023-02-28T16:19:25.165Z,48.67
2023-02-28T16:21:52.555Z,48.85
2023-02-28T16:24:19.475Z,49.19
2023-02-28T16:26:52.705Z,49.58
2023-02-28T16:29:38.503Z,50.03
2023-02-28T16:32:06.677Z,50.82
2023-02-28T16:34:33.592Z,51.37
2023-02-28T16:37:01.584Z,51.99
2023-02-28T16:39:29.222Z,52.62
2023-02-28T16:41:57.371Z,52.51
2023-02-28T16:44:34.446Z,52.79
2023-02-28T16:47:02.958Z,52.93
2023-02-28T16:49:30.423Z,53.18
2023-02-28T16:51:57.400Z,53.53
2023-02-28T16:54:24.185Z,53.75
2023-02-28T16:56:51.472Z,54.09
2023-02-28T16:59:23.506Z,54.45
2023-02-28T17:01:51.166Z,54.40
2023-02-28T17:04:18.520Z,54.79
2023-02-28T17:06:45.603Z,54.73
2023-02-28T17:09:18.397Z,55.10
2023-02-28T17:11:48.549Z,55.11
2023-02-28T17:14:16.491Z,55.40
2023-02-28T17:16:44.029Z,56.60
2023-02-28T17:19:16.513Z,56.30
2023-02-28T17:21:44.488Z,55.73
2023-02-28T17:24:22.167Z,55.85
2023-02-28T17:26:56.673Z,56.29
2023-02-28T17:29:23.423Z,56.11
2023-02-28T17:31:50.153Z,55.96
2023-02-28T17:34:19.403Z,56.71
2023-02-28T17:36:49.790Z,57.11
2023-02-28T17:39:25.534Z,57.30
2023-02-28T17:41:53.311Z,57.46
2023-02-28T17:44:21.130Z,57.87
2023-02-28T17:46:51.502Z,57.64
2023-02-28T17:49:19.997Z,57.73
2023-02-28T17:51:48.538Z,57.54
2023-02-28T17:54:17.594Z,57.77
2023-02-28T17:56:45.399Z,58.04
2023-02-28T17:59:13.385Z,58.54
2023-02-28T18:01:40.459Z,58.48
2023-02-28T18:04:07.391Z,58.29
2023-02-28T18:06:43.259Z,58.64
2023-02-28T18:09:13.335Z,57.80
2023-02-28T18:11:43.305Z,58.52
2023-02-28T18:14:13.823Z,58.14
2023-02-28T18:19:08.730Z,58.41
2023-02-28T18:21:36.400Z,58.42
2023-02-28T18:24:03.248Z,59.03
2023-02-28T18:26:30.462Z,58.83
2023-02-28T18:28:58.424Z,59.18
2023-02-28T18:31:25.456Z,59.52
2023-02-28T18:33:53.212Z,59.46
2023-02-28T18:36:21.538Z,60.20
2023-02-28T18:38:50.825Z,60.45
2023-02-28T18:41:20.882Z,60.10
2023-02-28T18:43:48.200Z,60.17
2023-02-28T18:46:17.111Z,60.47
2023-02-28T18:48:44.427Z,60.34
2023-02-28T18:51:21.525Z,60.32
2023-02-28T18:53:48.833Z,60.40
2023-02-28T18:56:18.548Z,60.99
2023-02-28T18:58:45.736Z,60.67
2023-02-28T19:01:27.077Z,60.70
2023-02-28T19:03:53.786Z,60.76
2023-02-28T19:06:20.659Z,60.86
2023-02-28T19:08:49.360Z,60.54
2023-02-28T19:11:18.514Z,61.05
2023-02-28T19:13:47.545Z,60.99
2023-02-28T19:16:17.273Z,60.83
2023-02-28T19:18:44.696Z,61.38
2023-02-28T19:21:14.169Z,61.12
2023-02-28T19:26:14.324Z,61.48
2023-02-28T19:31:24.746Z,61.95
2023-02-28T19:33:53.211Z,61.96
2023-02-28T19:36:21.661Z,62.37
2023-02-28T19:38:48.584Z,62.67
2023-02-28T19:41:17.816Z,62.51
2023-02-28T19:43:44.724Z,63.32
2023-02-28T19:46:12.520Z,63.04
2023-02-28T19:48:39.915Z,63.42
2023-02-28T19:51:09.944Z,63.67
2023-02-28T19:53:38.998Z,63.77
2023-02-28T19:56:06.637Z,63.63
2023-02-28T19:58:33.998Z,64.10
2023-02-28T20:01:12.375Z,64.00
2023-02-28T20:03:39.286Z,64.39
2023-02-28T20:06:10.037Z,64.65
2023-02-28T20:08:38.630Z,64.76
2023-02-28T20:11:11.216Z,64.76
2023-02-28T20:13:37.911Z,64.97
2023-02-28T20:16:09.751Z,65.53
2023-02-28T20:18:38.152Z,65.79
2023-02-28T20:21:05.218Z,65.89
2023-02-28T20:23:32.419Z,65.80
2023-02-28T20:26:03.110Z,65.91
2023-02-28T20:28:29.804Z,66.26
2023-02-28T20:30:57.019Z,66.54
2023-02-28T20:33:24.217Z,66.97
2023-02-28T20:35:58.371Z,66.80
2023-02-28T20:38:25.052Z,67.96
2023-02-28T20:40:56.538Z,67.84
2023-02-28T20:43:23.876Z,68.32
2023-02-28T20:45:52.735Z,67.86
2023-02-28T20:48:19.633Z,67.91
2023-02-28T20:50:54.574Z,68.68
2023-02-28T20:53:22.409Z,68.38
2023-02-28T20:56:01.340Z,68.66
2023-02-28T20:58:30.647Z,68.81
2023-02-28T21:01:18.158Z,69.19
2023-02-28T21:03:47.213Z,69.17
2023-02-28T21:06:17.586Z,69.32
2023-02-28T21:08:45.065Z,70.07
2023-02-28T21:11:14.285Z,70.12
2023-02-28T21:16:10.234Z,70.29
2023-02-28T21:18:37.738Z,70.62
2023-02-28T21:21:09.765Z,70.40
2023-02-28T21:23:36.565Z,70.72
2023-02-28T21:26:08.456Z,71.05
2023-02-28T21:28:36.153Z,71.00
2023-02-28T21:31:08.575Z,71.02
2023-02-28T21:33:35.945Z,71.86
2023-02-28T21:36:04.301Z,72.21
2023-02-28T21:38:38.661Z,72.16
2023-02-28T21:41:11.323Z,72.69
2023-02-28T21:43:39.062Z,73.39
2023-02-28T21:46:08.686Z,73.14
2023-02-28T21:48:36.357Z,73.30
2023-02-28T21:51:08.876Z,73.00
2023-02-28T21:56:15.240Z,73.50
2023-02-28T22:01:10.620Z,73.89
2023-02-28T22:03:37.966Z,74.54
2023-02-28T22:06:16.607Z,75.10
2023-02-28T22:08:44.956Z,74.47
2023-02-28T22:11:12.647Z,75.57
2023-02-28T22:13:40.521Z,75.75
2023-02-28T22:16:12.378Z,74.26
2023-02-28T22:18:40.166Z,74.62
2023-02-28T22:21:08.079Z,75.02
2023-02-28T22:23:36.521Z,74.98
2023-02-28T22:26:06.119Z,75.42
2023-02-28T22:28:33.502Z,75.79
2023-02-28T22:31:01.258Z,76.22
2023-02-28T22:33:28.320Z,75.46
2023-02-28T22:35:55.222Z,75.28
2023-02-28T22:38:22.862Z,75.42
2023-02-28T22:40:49.655Z,75.07
2023-02-28T22:43:16.756Z,75.67
2023-02-28T22:45:43.791Z,75.95
2023-02-28T22:48:11.272Z,75.93
2023-02-28T22:50:40.924Z,75.64
2023-02-28T22:53:07.558Z,76.00
2023-02-28T22:55:34.256Z,76.58
2023-02-28T22:58:00.987Z,76.33
2023-02-28T23:00:28.131Z,76.10
2023-02-28T23:02:54.846Z,76.25
2023-02-28T23:05:21.510Z,76.66
2023-02-28T23:07:48.258Z,76.46
2023-02-28T23:10:17.771Z,77.34
2023-02-28T23:12:53.917Z,78.78
2023-02-28T23:15:23.392Z,77.37
2023-02-28T23:17:50.515Z,77.77
2023-02-28T23:20:21.114Z,77.65
2023-02-28T23:22:50.721Z,78.16
2023-02-28T23:25:19.042Z,78.72
2023-02-28T23:27:46.410Z,77.83
2023-02-28T23:30:14.397Z,77.65
2023-02-28T23:32:43.729Z,77.98
2023-02-28T23:35:12.217Z,78.27
2023-02-28T23:37:40.033Z,78.43
2023-02-28T23:40:10.922Z,78.42
2023-02-28T23:42:37.962Z,78.98
2023-02-28T23:45:05.175Z,78.57
2023-02-28T23:47:32.666Z,78.68
2023-02-28T23:49:59.386Z,78.20
2023-02-28T23:52:26.128Z,78.95
2023-02-28T23:54:52.821Z,78.15
2023-02-28T23:57:19.875Z,78.06
2023-02-28T23:59:46.662Z,77.73
